sensor_id;sensor_type;location;lat;lon;timestamp;temperature;humidity
35381;DHT22;21486;51.916;8.378;2023-03-17T00:02:01;6.80;74.70
35381;DHT22;21486;51.916;8.378;2023-03-17T00:04:27;6.70;74.90
35381;DHT22;21486;51.916;8.378;2023-03-17T00:06:52;6.80;74.70
35381;DHT22;21486;51.916;8.378;2023-03-17T00:09:18;6.70;74.70
35381;DHT22;21486;51.916;8.378;2023-03-17T00:11:45;6.60;75.00
35381;DHT22;21486;51.916;8.378;2023-03-17T00:14:10;6.70;74.90
35381;DHT22;21486;51.916;8.378;2023-03-17T00:16:36;6.60;74.90
35381;DHT22;21486;51.916;8.378;2023-03-17T00:19:03;6.70;74.90
35381;DHT22;21486;51.916;8.378;2023-03-17T00:21:30;6.60;74.70
35381;DHT22;21486;51.916;8.378;2023-03-17T00:23:56;6.60;75.00
35381;DHT22;21486;51.916;8.378;2023-03-17T00:26:21;6.60;74.80
35381;DHT22;21486;51.916;8.378;2023-03-17T00:28:47;6.70;74.90
35381;DHT22;21486;51.916;8.378;2023-03-17T00:31:14;6.70;75.10
35381;DHT22;21486;51.916;8.378;2023-03-17T00:33:41;6.60;75.00
35381;DHT22;21486;51.916;8.378;2023-03-17T00:36:08;6.70;74.80
35381;DHT22;21486;51.916;8.378;2023-03-17T00:38:34;6.70;74.80
35381;DHT22;21486;51.916;8.378;2023-03-17T00:41:01;6.60;74.70
35381;DHT22;21486;51.916;8.378;2023-03-17T00:43:27;6.70;74.70
35381;DHT22;21486;51.916;8.378;2023-03-17T00:45:52;6.70;74.80
35381;DHT22;21486;51.916;8.378;2023-03-17T00:48:19;6.70;74.70
35381;DHT22;21486;51.916;8.378;2023-03-17T00:50:45;6.60;74.70
35381;DHT22;21486;51.916;8.378;2023-03-17T00:53:13;6.70;74.60
35381;DHT22;21486;51.916;8.378;2023-03-17T00:55:39;6.60;74.60
35381;DHT22;21486;51.916;8.378;2023-03-17T00:58:16;6.60;74.40
35381;DHT22;21486;51.916;8.378;2023-03-17T01:00:43;6.70;74.60
35381;DHT22;21486;51.916;8.378;2023-03-17T01:03:10;6.70;74.40
35381;DHT22;21486;51.916;8.378;2023-03-17T01:05:36;6.70;74.40
35381;DHT22;21486;51.916;8.378;2023-03-17T01:08:02;6.70;74.40
35381;DHT22;21486;51.916;8.378;2023-03-17T01:10:28;6.70;74.40
35381;DHT22;21486;51.916;8.378;2023-03-17T01:12:55;6.60;74.30
35381;DHT22;21486;51.916;8.378;2023-03-17T01:15:22;6.70;74.30
35381;DHT22;21486;51.916;8.378;2023-03-17T01:17:48;6.70;74.20
35381;DHT22;21486;51.916;8.378;2023-03-17T01:20:19;6.70;74.20
35381;DHT22;21486;51.916;8.378;2023-03-17T01:22:46;6.60;74.40
35381;DHT22;21486;51.916;8.378;2023-03-17T01:25:12;6.70;74.50
35381;DHT22;21486;51.916;8.378;2023-03-17T01:27:37;6.60;74.50
35381;DHT22;21486;51.916;8.378;2023-03-17T01:33:02;6.60;74.40
35381;DHT22;21486;51.916;8.378;2023-03-17T01:35:28;6.60;74.70
35381;DHT22;21486;51.916;8.378;2023-03-17T01:37:55;6.60;74.50
35381;DHT22;21486;51.916;8.378;2023-03-17T01:40:30;6.60;74.50
35381;DHT22;21486;51.916;8.378;2023-03-17T01:43:02;6.50;74.90
35381;DHT22;21486;51.916;8.378;2023-03-17T01:48:37;6.50;75.00
35381;DHT22;21486;51.916;8.378;2023-03-17T01:51:05;6.50;74.80
35381;DHT22;21486;51.916;8.378;2023-03-17T01:53:32;6.50;74.80
35381;DHT22;21486;51.916;8.378;2023-03-17T01:55:59;6.60;74.80
35381;DHT22;21486;51.916;8.378;2023-03-17T01:58:25;6.70;74.40
35381;DHT22;21486;51.916;8.378;2023-03-17T02:00:51;6.70;74.10
35381;DHT22;21486;51.916;8.378;2023-03-17T02:03:17;6.70;74.10
35381;DHT22;21486;51.916;8.378;2023-03-17T02:05:43;6.80;74.00
35381;DHT22;21486;51.916;8.378;2023-03-17T02:08:11;6.80;73.80
35381;DHT22;21486;51.916;8.378;2023-03-17T02:10:38;6.80;73.70
35381;DHT22;21486;51.916;8.378;2023-03-17T02:13:04;6.80;73.70
35381;DHT22;21486;51.916;8.378;2023-03-17T02:15:41;6.80;73.50
35381;DHT22;21486;51.916;8.378;2023-03-17T02:18:08;6.80;73.50
35381;DHT22;21486;51.916;8.378;2023-03-17T02:23:01;6.70;73.90
35381;DHT22;21486;51.916;8.378;2023-03-17T02:25:29;6.80;73.80
35381;DHT22;21486;51.916;8.378;2023-03-17T02:28:01;6.70;73.50
35381;DHT22;21486;51.916;8.378;2023-03-17T02:30:31;6.70;73.80
35381;DHT22;21486;51.916;8.378;2023-03-17T02:32:58;6.60;74.10
35381;DHT22;21486;51.916;8.378;2023-03-17T02:35:23;6.50;74.40
35381;DHT22;21486;51.916;8.378;2023-03-17T02:37:49;6.50;74.70
35381;DHT22;21486;51.916;8.378;2023-03-17T02:40:15;6.50;74.80
35381;DHT22;21486;51.916;8.378;2023-03-17T02:42:41;6.40;74.70
35381;DHT22;21486;51.916;8.378;2023-03-17T02:45:08;6.50;74.90
35381;DHT22;21486;51.916;8.378;2023-03-17T02:47:36;6.50;75.40
35381;DHT22;21486;51.916;8.378;2023-03-17T02:50:02;6.50;74.80
35381;DHT22;21486;51.916;8.378;2023-03-17T02:52:29;6.60;74.80
35381;DHT22;21486;51.916;8.378;2023-03-17T02:54:54;6.70;74.70
35381;DHT22;21486;51.916;8.378;2023-03-17T02:57:20;6.70;74.40
35381;DHT22;21486;51.916;8.378;2023-03-17T02:59:46;6.60;74.30
35381;DHT22;21486;51.916;8.378;2023-03-17T03:02:11;6.60;74.20
35381;DHT22;21486;51.916;8.378;2023-03-17T03:04:37;6.70;74.20
35381;DHT22;21486;51.916;8.378;2023-03-17T03:07:03;6.50;74.40
35381;DHT22;21486;51.916;8.378;2023-03-17T03:09:29;6.60;74.60
35381;DHT22;21486;51.916;8.378;2023-03-17T03:11:55;6.40;74.70
35381;DHT22;21486;51.916;8.378;2023-03-17T03:14:21;6.40;74.90
35381;DHT22;21486;51.916;8.378;2023-03-17T03:16:47;6.30;75.10
35381;DHT22;21486;51.916;8.378;2023-03-17T03:19:12;6.30;74.80
35381;DHT22;21486;51.916;8.378;2023-03-17T03:21:38;6.30;75.00
35381;DHT22;21486;51.916;8.378;2023-03-17T03:24:04;6.20;75.00
35381;DHT22;21486;51.916;8.378;2023-03-17T03:26:31;6.30;74.60
35381;DHT22;21486;51.916;8.378;2023-03-17T03:28:56;6.30;74.60
35381;DHT22;21486;51.916;8.378;2023-03-17T03:31:23;6.40;74.50
35381;DHT22;21486;51.916;8.378;2023-03-17T03:33:48;6.40;74.50
35381;DHT22;21486;51.916;8.378;2023-03-17T03:36:14;6.30;75.20
35381;DHT22;21486;51.916;8.378;2023-03-17T03:38:39;6.20;74.70
35381;DHT22;21486;51.916;8.378;2023-03-17T03:41:06;6.20;74.80
35381;DHT22;21486;51.916;8.378;2023-03-17T03:43:31;6.10;74.90
35381;DHT22;21486;51.916;8.378;2023-03-17T03:45:57;6.10;74.70
35381;DHT22;21486;51.916;8.378;2023-03-17T03:48:23;6.30;74.70
35381;DHT22;21486;51.916;8.378;2023-03-17T03:50:48;6.20;74.60
35381;DHT22;21486;51.916;8.378;2023-03-17T03:53:14;6.20;74.70
35381;DHT22;21486;51.916;8.378;2023-03-17T03:55:40;6.30;74.50
35381;DHT22;21486;51.916;8.378;2023-03-17T03:58:06;6.20;74.40
35381;DHT22;21486;51.916;8.378;2023-03-17T04:00:32;6.20;74.60
35381;DHT22;21486;51.916;8.378;2023-03-17T04:02:58;6.20;74.20
35381;DHT22;21486;51.916;8.378;2023-03-17T04:05:24;6.20;74.30
35381;DHT22;21486;51.916;8.378;2023-03-17T04:07:50;6.20;74.10
35381;DHT22;21486;51.916;8.378;2023-03-17T04:10:16;6.20;74.30
35381;DHT22;21486;51.916;8.378;2023-03-17T04:12:42;6.20;74.40
35381;DHT22;21486;51.916;8.378;2023-03-17T04:15:08;6.20;74.60
35381;DHT22;21486;51.916;8.378;2023-03-17T04:17:35;6.10;74.50
35381;DHT22;21486;51.916;8.378;2023-03-17T04:20:01;6.10;74.60
35381;DHT22;21486;51.916;8.378;2023-03-17T04:22:27;6.10;74.70
35381;DHT22;21486;51.916;8.378;2023-03-17T04:24:53;6.10;74.70
35381;DHT22;21486;51.916;8.378;2023-03-17T04:27:18;6.10;74.90
35381;DHT22;21486;51.916;8.378;2023-03-17T04:29:44;6.10;74.70
35381;DHT22;21486;51.916;8.378;2023-03-17T04:32:13;6.00;74.70
35381;DHT22;21486;51.916;8.378;2023-03-17T04:34:39;6.00;74.80
35381;DHT22;21486;51.916;8.378;2023-03-17T04:37:06;6.00;75.10
35381;DHT22;21486;51.916;8.378;2023-03-17T04:39:32;6.00;75.10
35381;DHT22;21486;51.916;8.378;2023-03-17T04:41:57;5.90;75.20
35381;DHT22;21486;51.916;8.378;2023-03-17T04:44:23;5.90;75.20
35381;DHT22;21486;51.916;8.378;2023-03-17T04:46:48;6.00;75.20
35381;DHT22;21486;51.916;8.378;2023-03-17T04:49:14;6.10;74.80
35381;DHT22;21486;51.916;8.378;2023-03-17T04:51:40;6.10;74.70
35381;DHT22;21486;51.916;8.378;2023-03-17T04:54:06;6.00;74.90
35381;DHT22;21486;51.916;8.378;2023-03-17T04:56:32;5.90;75.30
35381;DHT22;21486;51.916;8.378;2023-03-17T04:58:58;5.80;75.50
35381;DHT22;21486;51.916;8.378;2023-03-17T05:01:23;5.80;75.80
35381;DHT22;21486;51.916;8.378;2023-03-17T05:03:49;5.80;76.00
35381;DHT22;21486;51.916;8.378;2023-03-17T05:06:15;5.80;75.80
35381;DHT22;21486;51.916;8.378;2023-03-17T05:08:41;5.80;75.70
35381;DHT22;21486;51.916;8.378;2023-03-17T05:11:10;5.80;75.90
35381;DHT22;21486;51.916;8.378;2023-03-17T05:13:36;5.70;76.20
35381;DHT22;21486;51.916;8.378;2023-03-17T05:16:01;5.70;76.30
35381;DHT22;21486;51.916;8.378;2023-03-17T05:18:27;5.70;76.40
35381;DHT22;21486;51.916;8.378;2023-03-17T05:20:53;5.70;76.40
35381;DHT22;21486;51.916;8.378;2023-03-17T05:23:19;5.60;76.60
35381;DHT22;21486;51.916;8.378;2023-03-17T05:25:46;5.60;76.70
35381;DHT22;21486;51.916;8.378;2023-03-17T05:28:12;5.60;76.50
35381;DHT22;21486;51.916;8.378;2023-03-17T05:30:38;5.70;76.50
35381;DHT22;21486;51.916;8.378;2023-03-17T05:33:04;5.70;76.20
35381;DHT22;21486;51.916;8.378;2023-03-17T05:35:31;5.80;76.20
35381;DHT22;21486;51.916;8.378;2023-03-17T05:37:56;5.70;76.10
35381;DHT22;21486;51.916;8.378;2023-03-17T05:40:22;5.70;76.40
35381;DHT22;21486;51.916;8.378;2023-03-17T05:42:49;5.70;76.40
35381;DHT22;21486;51.916;8.378;2023-03-17T05:45:15;5.70;76.30
35381;DHT22;21486;51.916;8.378;2023-03-17T05:47:41;5.80;75.70
35381;DHT22;21486;51.916;8.378;2023-03-17T05:50:09;5.70;75.70
35381;DHT22;21486;51.916;8.378;2023-03-17T05:52:35;5.80;75.80
35381;DHT22;21486;51.916;8.378;2023-03-17T05:55:01;5.80;75.80
35381;DHT22;21486;51.916;8.378;2023-03-17T05:57:27;5.80;75.80
35381;DHT22;21486;51.916;8.378;2023-03-17T05:59:52;5.80;75.30
35381;DHT22;21486;51.916;8.378;2023-03-17T06:02:19;6.00;75.10
35381;DHT22;21486;51.916;8.378;2023-03-17T06:04:45;6.00;75.20
35381;DHT22;21486;51.916;8.378;2023-03-17T06:07:11;5.90;75.00
35381;DHT22;21486;51.916;8.378;2023-03-17T06:09:37;6.00;74.90
35381;DHT22;21486;51.916;8.378;2023-03-17T06:12:03;6.00;74.70
35381;DHT22;21486;51.916;8.378;2023-03-17T06:14:28;6.00;74.50
35381;DHT22;21486;51.916;8.378;2023-03-17T06:16:54;6.00;74.70
35381;DHT22;21486;51.916;8.378;2023-03-17T06:19:20;6.00;74.70
35381;DHT22;21486;51.916;8.378;2023-03-17T06:21:45;6.00;74.50
35381;DHT22;21486;51.916;8.378;2023-03-17T06:24:11;6.10;74.40
35381;DHT22;21486;51.916;8.378;2023-03-17T06:26:36;6.10;74.30
35381;DHT22;21486;51.916;8.378;2023-03-17T06:29:03;6.20;74.10
35381;DHT22;21486;51.916;8.378;2023-03-17T06:31:29;6.20;73.60
35381;DHT22;21486;51.916;8.378;2023-03-17T06:33:55;6.40;73.30
35381;DHT22;21486;51.916;8.378;2023-03-17T06:36:22;6.50;72.80
35381;DHT22;21486;51.916;8.378;2023-03-17T06:38:47;6.50;72.70
35381;DHT22;21486;51.916;8.378;2023-03-17T06:41:13;6.70;72.30
35381;DHT22;21486;51.916;8.378;2023-03-17T06:43:39;6.80;71.80
35381;DHT22;21486;51.916;8.378;2023-03-17T06:46:05;6.70;71.80
35381;DHT22;21486;51.916;8.378;2023-03-17T06:48:31;6.70;72.00
35381;DHT22;21486;51.916;8.378;2023-03-17T06:50:58;6.70;72.10
35381;DHT22;21486;51.916;8.378;2023-03-17T06:53:24;6.80;72.10
35381;DHT22;21486;51.916;8.378;2023-03-17T06:55:50;6.80;72.20
35381;DHT22;21486;51.916;8.378;2023-03-17T06:58:15;6.80;71.80
35381;DHT22;21486;51.916;8.378;2023-03-17T07:00:41;6.90;71.60
35381;DHT22;21486;51.916;8.378;2023-03-17T07:03:09;6.90;71.70
35381;DHT22;21486;51.916;8.378;2023-03-17T07:05:35;6.90;71.40
35381;DHT22;21486;51.916;8.378;2023-03-17T07:08:02;7.00;71.90
35381;DHT22;21486;51.916;8.378;2023-03-17T07:10:28;7.00;71.20
35381;DHT22;21486;51.916;8.378;2023-03-17T07:12:53;7.20;70.60
35381;DHT22;21486;51.916;8.378;2023-03-17T07:15:19;7.30;70.50
35381;DHT22;21486;51.916;8.378;2023-03-17T07:17:45;7.30;69.90
35381;DHT22;21486;51.916;8.378;2023-03-17T07:20:11;7.40;69.90
35381;DHT22;21486;51.916;8.378;2023-03-17T07:22:38;7.50;69.50
35381;DHT22;21486;51.916;8.378;2023-03-17T07:25:04;7.70;69.30
35381;DHT22;21486;51.916;8.378;2023-03-17T07:27:30;7.70;68.80
35381;DHT22;21486;51.916;8.378;2023-03-17T07:29:55;7.70;68.00
35381;DHT22;21486;51.916;8.378;2023-03-17T07:32:21;7.80;68.20
35381;DHT22;21486;51.916;8.378;2023-03-17T07:34:47;7.90;67.80
35381;DHT22;21486;51.916;8.378;2023-03-17T07:37:12;8.10;67.40
35381;DHT22;21486;51.916;8.378;2023-03-17T07:39:38;8.30;66.70
35381;DHT22;21486;51.916;8.378;2023-03-17T07:42:04;8.30;66.10
35381;DHT22;21486;51.916;8.378;2023-03-17T07:44:30;8.30;66.40
35381;DHT22;21486;51.916;8.378;2023-03-17T07:46:57;8.30;66.50
35381;DHT22;21486;51.916;8.378;2023-03-17T07:49:23;8.40;66.70
35381;DHT22;21486;51.916;8.378;2023-03-17T07:51:48;8.50;66.20
35381;DHT22;21486;51.916;8.378;2023-03-17T07:54:14;8.60;66.30
35381;DHT22;21486;51.916;8.378;2023-03-17T07:56:40;8.60;65.30
35381;DHT22;21486;51.916;8.378;2023-03-17T07:59:06;8.70;65.50
35381;DHT22;21486;51.916;8.378;2023-03-17T08:01:33;8.80;65.30
35381;DHT22;21486;51.916;8.378;2023-03-17T08:03:59;9.00;64.60
35381;DHT22;21486;51.916;8.378;2023-03-17T08:06:25;9.20;63.90
35381;DHT22;21486;51.916;8.378;2023-03-17T08:08:52;9.20;63.50
35381;DHT22;21486;51.916;8.378;2023-03-17T08:11:18;9.40;64.00
35381;DHT22;21486;51.916;8.378;2023-03-17T08:13:44;9.50;62.80
35381;DHT22;21486;51.916;8.378;2023-03-17T08:16:09;9.60;63.00
35381;DHT22;21486;51.916;8.378;2023-03-17T08:18:36;9.70;62.60
35381;DHT22;21486;51.916;8.378;2023-03-17T08:21:02;9.80;62.20
35381;DHT22;21486;51.916;8.378;2023-03-17T08:23:28;10.00;62.10
35381;DHT22;21486;51.916;8.378;2023-03-17T08:26:00;10.20;61.60
35381;DHT22;21486;51.916;8.378;2023-03-17T08:28:28;10.40;60.90
35381;DHT22;21486;51.916;8.378;2023-03-17T08:30:54;10.30;60.80
35381;DHT22;21486;51.916;8.378;2023-03-17T08:33:20;10.40;60.30
35381;DHT22;21486;51.916;8.378;2023-03-17T08:35:46;10.60;61.20
35381;DHT22;21486;51.916;8.378;2023-03-17T08:38:12;10.80;60.40
35381;DHT22;21486;51.916;8.378;2023-03-17T08:40:38;10.90;60.00
35381;DHT22;21486;51.916;8.378;2023-03-17T08:43:04;10.90;59.80
35381;DHT22;21486;51.916;8.378;2023-03-17T08:45:30;11.10;60.00
35381;DHT22;21486;51.916;8.378;2023-03-17T08:47:56;11.30;59.00
35381;DHT22;21486;51.916;8.378;2023-03-17T08:50:23;11.40;58.40
35381;DHT22;21486;51.916;8.378;2023-03-17T08:52:49;11.40;58.20
35381;DHT22;21486;51.916;8.378;2023-03-17T08:55:16;11.40;58.70
35381;DHT22;21486;51.916;8.378;2023-03-17T08:57:42;11.50;58.40
35381;DHT22;21486;51.916;8.378;2023-03-17T09:00:11;11.70;57.80
35381;DHT22;21486;51.916;8.378;2023-03-17T09:02:37;12.00;56.40
35381;DHT22;21486;51.916;8.378;2023-03-17T09:05:04;12.00;56.40
35381;DHT22;21486;51.916;8.378;2023-03-17T09:07:30;12.30;56.40
35381;DHT22;21486;51.916;8.378;2023-03-17T09:09:55;12.60;55.50
35381;DHT22;21486;51.916;8.378;2023-03-17T09:12:21;13.10;55.20
35381;DHT22;21486;51.916;8.378;2023-03-17T09:14:47;13.10;54.80
35381;DHT22;21486;51.916;8.378;2023-03-17T09:17:13;13.50;53.70
35381;DHT22;21486;51.916;8.378;2023-03-17T09:19:39;13.90;53.40
35381;DHT22;21486;51.916;8.378;2023-03-17T09:22:05;13.90;52.60
35381;DHT22;21486;51.916;8.378;2023-03-17T09:24:31;14.20;52.30
35381;DHT22;21486;51.916;8.378;2023-03-17T09:26:56;14.70;52.30
35381;DHT22;21486;51.916;8.378;2023-03-17T09:29:24;14.70;51.70
35381;DHT22;21486;51.916;8.378;2023-03-17T09:31:50;15.10;49.70
35381;DHT22;21486;51.916;8.378;2023-03-17T09:34:16;14.90;51.20
35381;DHT22;21486;51.916;8.378;2023-03-17T09:36:42;15.40;51.50
35381;DHT22;21486;51.916;8.378;2023-03-17T09:39:07;16.30;49.50
35381;DHT22;21486;51.916;8.378;2023-03-17T09:41:39;16.20;48.50
35381;DHT22;21486;51.916;8.378;2023-03-17T09:44:20;16.70;48.90
35381;DHT22;21486;51.916;8.378;2023-03-17T09:49:18;16.90;46.80
35381;DHT22;21486;51.916;8.378;2023-03-17T09:51:45;16.10;46.90
35381;DHT22;21486;51.916;8.378;2023-03-17T09:54:23;16.60;47.70
35381;DHT22;21486;51.916;8.378;2023-03-17T09:56:53;16.70;47.50
35381;DHT22;21486;51.916;8.378;2023-03-17T09:59:31;16.00;47.80
35381;DHT22;21486;51.916;8.378;2023-03-17T10:01:57;15.70;48.40
35381;DHT22;21486;51.916;8.378;2023-03-17T10:04:22;16.40;48.40
35381;DHT22;21486;51.916;8.378;2023-03-17T10:06:48;16.30;47.50
35381;DHT22;21486;51.916;8.378;2023-03-17T10:12:26;15.90;47.90
35381;DHT22;21486;51.916;8.378;2023-03-17T10:15:01;15.90;48.20
35381;DHT22;21486;51.916;8.378;2023-03-17T10:17:35;16.50;48.30
35381;DHT22;21486;51.916;8.378;2023-03-17T10:20:07;17.30;48.60
35381;DHT22;21486;51.916;8.378;2023-03-17T10:22:39;17.70;45.30
35381;DHT22;21486;51.916;8.378;2023-03-17T10:25:20;18.30;45.20
35381;DHT22;21486;51.916;8.378;2023-03-17T10:28:10;17.80;46.00
35381;DHT22;21486;51.916;8.378;2023-03-17T10:30:33;17.60;45.30
35381;DHT22;21486;51.916;8.378;2023-03-17T10:33:00;17.80;45.60
35381;DHT22;21486;51.916;8.378;2023-03-17T10:35:27;18.30;45.10
35381;DHT22;21486;51.916;8.378;2023-03-17T10:37:52;18.20;45.30
35381;DHT22;21486;51.916;8.378;2023-03-17T10:40:19;18.60;44.20
35381;DHT22;21486;51.916;8.378;2023-03-17T10:42:46;18.70;45.20
35381;DHT22;21486;51.916;8.378;2023-03-17T10:45:29;19.20;43.50
35381;DHT22;21486;51.916;8.378;2023-03-17T10:47:55;18.30;43.40
35381;DHT22;21486;51.916;8.378;2023-03-17T10:52:57;18.30;46.10
35381;DHT22;21486;51.916;8.378;2023-03-17T10:55:25;18.50;45.30
35381;DHT22;21486;51.916;8.378;2023-03-17T10:58:04;18.80;44.60
35381;DHT22;21486;51.916;8.378;2023-03-17T11:00:33;18.70;43.80
35381;DHT22;21486;51.916;8.378;2023-03-17T11:03:02;18.30;45.30
35381;DHT22;21486;51.916;8.378;2023-03-17T11:05:28;17.80;46.10
35381;DHT22;21486;51.916;8.378;2023-03-17T11:08:07;18.00;46.60
35381;DHT22;21486;51.916;8.378;2023-03-17T11:10:35;18.20;46.10
35381;DHT22;21486;51.916;8.378;2023-03-17T11:13:01;17.90;46.20
35381;DHT22;21486;51.916;8.378;2023-03-17T11:15:27;17.60;46.70
35381;DHT22;21486;51.916;8.378;2023-03-17T11:17:55;17.60;47.00
35381;DHT22;21486;51.916;8.378;2023-03-17T11:20:31;17.50;47.20
35381;DHT22;21486;51.916;8.378;2023-03-17T11:25:27;18.20;46.20
35381;DHT22;21486;51.916;8.378;2023-03-17T11:30:36;18.30;45.50
35381;DHT22;21486;51.916;8.378;2023-03-17T11:35:44;18.10;46.20
35381;DHT22;21486;51.916;8.378;2023-03-17T11:38:21;18.10;45.70
35381;DHT22;21486;51.916;8.378;2023-03-17T11:41:05;18.20;44.90
35381;DHT22;21486;51.916;8.378;2023-03-17T11:46:35;18.20;44.90
35381;DHT22;21486;51.916;8.378;2023-03-17T11:49:12;18.10;45.10
35381;DHT22;21486;51.916;8.378;2023-03-17T12:02:09;17.80;46.50
35381;DHT22;21486;51.916;8.378;2023-03-17T12:04:33;18.40;47.10
35381;DHT22;21486;51.916;8.378;2023-03-17T12:07:02;17.60;46.40
35381;DHT22;21486;51.916;8.378;2023-03-17T12:09:40;17.50;46.40
35381;DHT22;21486;51.916;8.378;2023-03-17T12:12:07;17.60;46.00
35381;DHT22;21486;51.916;8.378;2023-03-17T12:14:38;18.00;45.90
35381;DHT22;21486;51.916;8.378;2023-03-17T12:17:08;17.90;45.60
35381;DHT22;21486;51.916;8.378;2023-03-17T12:19:37;18.50;45.40
35381;DHT22;21486;51.916;8.378;2023-03-17T12:24:34;19.60;44.10
35381;DHT22;21486;51.916;8.378;2023-03-17T12:27:02;19.70;43.30
35381;DHT22;21486;51.916;8.378;2023-03-17T12:29:41;19.60;42.00
35381;DHT22;21486;51.916;8.378;2023-03-17T12:32:11;19.30;43.00
35381;DHT22;21486;51.916;8.378;2023-03-17T12:37:06;19.50;44.00
35381;DHT22;21486;51.916;8.378;2023-03-17T12:39:32;19.20;43.30
35381;DHT22;21486;51.916;8.378;2023-03-17T12:55:29;18.90;44.30
35381;DHT22;21486;51.916;8.378;2023-03-17T12:58:20;18.90;44.00
35381;DHT22;21486;51.916;8.378;2023-03-17T13:00:48;18.90;43.80
35381;DHT22;21486;51.916;8.378;2023-03-17T13:05:46;19.00;44.30
35381;DHT22;21486;51.916;8.378;2023-03-17T13:08:15;19.00;44.80
35381;DHT22;21486;51.916;8.378;2023-03-17T13:10:42;18.70;44.30
35381;DHT22;21486;51.916;8.378;2023-03-17T13:13:09;18.80;45.80
35381;DHT22;21486;51.916;8.378;2023-03-17T13:20:39;18.90;45.80
35381;DHT22;21486;51.916;8.378;2023-03-17T13:25:55;19.00;44.90
35381;DHT22;21486;51.916;8.378;2023-03-17T13:28:24;19.10;45.40
35381;DHT22;21486;51.916;8.378;2023-03-17T13:33:33;18.60;47.00
35381;DHT22;21486;51.916;8.378;2023-03-17T13:36:04;18.70;47.50
35381;DHT22;21486;51.916;8.378;2023-03-17T13:38:44;18.30;48.20
35381;DHT22;21486;51.916;8.378;2023-03-17T13:43:42;18.30;47.50
35381;DHT22;21486;51.916;8.378;2023-03-17T13:48:44;18.20;48.60
35381;DHT22;21486;51.916;8.378;2023-03-17T13:51:14;18.10;48.60
35381;DHT22;21486;51.916;8.378;2023-03-17T13:53:42;18.20;48.50
35381;DHT22;21486;51.916;8.378;2023-03-17T13:56:13;18.30;48.90
35381;DHT22;21486;51.916;8.378;2023-03-17T14:01:23;18.30;49.20
35381;DHT22;21486;51.916;8.378;2023-03-17T14:03:50;18.20;49.20
35381;DHT22;21486;51.916;8.378;2023-03-17T14:06:16;18.20;49.60
35381;DHT22;21486;51.916;8.378;2023-03-17T14:08:47;18.00;49.30
35381;DHT22;21486;51.916;8.378;2023-03-17T14:11:21;17.80;49.70
35381;DHT22;21486;51.916;8.378;2023-03-17T14:13:51;17.80;49.10
35381;DHT22;21486;51.916;8.378;2023-03-17T14:16:25;17.80;49.40
35381;DHT22;21486;51.916;8.378;2023-03-17T14:18:59;17.80;49.60
35381;DHT22;21486;51.916;8.378;2023-03-17T14:21:32;17.60;49.90
35381;DHT22;21486;51.916;8.378;2023-03-17T14:23:59;17.60;50.40
35381;DHT22;21486;51.916;8.378;2023-03-17T14:26:26;17.60;50.40
35381;DHT22;21486;51.916;8.378;2023-03-17T14:28:52;17.60;50.40
35381;DHT22;21486;51.916;8.378;2023-03-17T14:31:22;17.60;50.80
35381;DHT22;21486;51.916;8.378;2023-03-17T14:33:49;17.50;51.00
35381;DHT22;21486;51.916;8.378;2023-03-17T14:36:16;17.70;51.80
35381;DHT22;21486;51.916;8.378;2023-03-17T14:38:46;17.70;51.90
35381;DHT22;21486;51.916;8.378;2023-03-17T14:41:16;17.70;52.70
35381;DHT22;21486;51.916;8.378;2023-03-17T14:43:42;17.50;53.00
35381;DHT22;21486;51.916;8.378;2023-03-17T14:46:12;17.40;53.10
35381;DHT22;21486;51.916;8.378;2023-03-17T14:48:39;17.20;53.00
35381;DHT22;21486;51.916;8.378;2023-03-17T14:51:06;17.30;53.70
35381;DHT22;21486;51.916;8.378;2023-03-17T14:53:38;17.30;54.40
35381;DHT22;21486;51.916;8.378;2023-03-17T14:56:04;17.30;53.90
35381;DHT22;21486;51.916;8.378;2023-03-17T14:58:33;17.20;53.70
35381;DHT22;21486;51.916;8.378;2023-03-17T15:01:11;17.20;54.20
35381;DHT22;21486;51.916;8.378;2023-03-17T15:03:38;17.20;54.00
35381;DHT22;21486;51.916;8.378;2023-03-17T15:08:40;16.90;54.20
35381;DHT22;21486;51.916;8.378;2023-03-17T15:11:07;16.80;54.00
35381;DHT22;21486;51.916;8.378;2023-03-17T15:13:34;16.70;54.40
35381;DHT22;21486;51.916;8.378;2023-03-17T15:16:14;16.60;54.00
35381;DHT22;21486;51.916;8.378;2023-03-17T15:18:40;16.60;53.80
35381;DHT22;21486;51.916;8.378;2023-03-17T15:21:19;16.60;54.20
35381;DHT22;21486;51.916;8.378;2023-03-17T15:23:45;16.40;54.60
35381;DHT22;21486;51.916;8.378;2023-03-17T15:26:20;16.30;55.00
35381;DHT22;21486;51.916;8.378;2023-03-17T15:28:46;16.40;55.30
35381;DHT22;21486;51.916;8.378;2023-03-17T15:31:12;16.20;54.30
35381;DHT22;21486;51.916;8.378;2023-03-17T15:33:39;16.20;54.60
35381;DHT22;21486;51.916;8.378;2023-03-17T15:36:05;16.00;54.90
35381;DHT22;21486;51.916;8.378;2023-03-17T15:38:31;15.90;55.00
35381;DHT22;21486;51.916;8.378;2023-03-17T15:40:57;15.70;55.40
35381;DHT22;21486;51.916;8.378;2023-03-17T15:43:23;15.70;55.20
35381;DHT22;21486;51.916;8.378;2023-03-17T15:46:01;15.70;55.80
35381;DHT22;21486;51.916;8.378;2023-03-17T15:48:29;15.70;55.60
35381;DHT22;21486;51.916;8.378;2023-03-17T15:50:55;15.70;56.20
35381;DHT22;21486;51.916;8.378;2023-03-17T15:53:22;15.70;56.50
35381;DHT22;21486;51.916;8.378;2023-03-17T15:55:48;15.70;56.40
35381;DHT22;21486;51.916;8.378;2023-03-17T15:58:13;15.60;56.40
35381;DHT22;21486;51.916;8.378;2023-03-17T16:00:39;15.70;56.40
35381;DHT22;21486;51.916;8.378;2023-03-17T16:03:14;15.70;55.80
35381;DHT22;21486;51.916;8.378;2023-03-17T16:05:41;15.50;56.10
35381;DHT22;21486;51.916;8.378;2023-03-17T16:08:10;15.40;56.80
35381;DHT22;21486;51.916;8.378;2023-03-17T16:10:36;15.30;57.10
35381;DHT22;21486;51.916;8.378;2023-03-17T16:13:01;15.30;57.20
35381;DHT22;21486;51.916;8.378;2023-03-17T16:15:28;15.20;56.80
35381;DHT22;21486;51.916;8.378;2023-03-17T16:17:56;15.00;57.30
35381;DHT22;21486;51.916;8.378;2023-03-17T16:20:24;15.00;57.80
35381;DHT22;21486;51.916;8.378;2023-03-17T16:22:52;15.00;58.10
35381;DHT22;21486;51.916;8.378;2023-03-17T16:27:44;14.80;58.10
35381;DHT22;21486;51.916;8.378;2023-03-17T16:30:20;14.80;58.30
35381;DHT22;21486;51.916;8.378;2023-03-17T16:32:46;14.80;58.60
35381;DHT22;21486;51.916;8.378;2023-03-17T16:35:13;14.70;58.60
35381;DHT22;21486;51.916;8.378;2023-03-17T16:37:39;14.70;58.90
35381;DHT22;21486;51.916;8.378;2023-03-17T16:40:07;14.70;58.90
35381;DHT22;21486;51.916;8.378;2023-03-17T16:42:38;14.60;59.20
35381;DHT22;21486;51.916;8.378;2023-03-17T16:45:05;14.50;59.40
35381;DHT22;21486;51.916;8.378;2023-03-17T16:47:35;14.40;59.50
35381;DHT22;21486;51.916;8.378;2023-03-17T16:50:00;14.40;60.00
35381;DHT22;21486;51.916;8.378;2023-03-17T16:52:25;14.40;60.20
35381;DHT22;21486;51.916;8.378;2023-03-17T16:54:52;14.40;60.60
35381;DHT22;21486;51.916;8.378;2023-03-17T16:57:18;14.30;60.50
35381;DHT22;21486;51.916;8.378;2023-03-17T16:59:44;14.30;60.90
35381;DHT22;21486;51.916;8.378;2023-03-17T17:02:13;14.20;61.00
35381;DHT22;21486;51.916;8.378;2023-03-17T17:04:39;14.20;61.20